Time;durP1;ratioP1;P1;durP2;ratioP2;P2;SDS_P1;SDS_P2;PMS_P1;PMS_P2;Temp;Humidity;BMP_temperature;BMP_pressure;BME280_temperature;BME280_humidity;BME280_pressure;Samples;Min_cycle;Max_cycle;Signal;HPM_P1;HPM_P2
2023/12/08 00:01:10;;;;;;;19.08;10.90;;;;;;;-146.27;79.04;34204.16;5093098;28;20024;-69
2023/12/08 00:03:35;;;;;;;17.83;10.18;;;;;;;-146.27;79.01;34224.03;5109350;28;20031;-68
2023/12/08 00:06:00;;;;;;;23.20;10.40;;;;;;;-146.27;79.20;34247.84;5108203;28;20034;-68
2023/12/08 00:08:26;;;;;;;21.92;11.30;;;;;;;-146.27;80.18;34267.69;5092513;28;20476;-69
2023/12/08 00:10:51;;;;;;;17.05;9.73;;;;;;;-146.27;79.49;34172.41;5097271;28;20032;-69
2023/12/08 00:13:16;;;;;;;20.88;10.60;;;;;;;-146.27;79.32;34239.91;5086121;28;20023;-69
2023/12/08 00:15:42;;;;;;;20.05;10.32;;;;;;;-146.27;79.69;34237.91;5105452;28;20452;-69
2023/12/08 00:18:07;;;;;;;20.27;10.93;;;;;;;-146.27;80.01;34247.84;5090354;28;20055;-68
2023/12/08 00:20:32;;;;;;;19.73;10.70;;;;;;;-146.27;79.77;34233.94;5098508;28;20031;-69
2023/12/08 00:22:58;;;;;;;21.33;10.77;;;;;;;-146.27;79.47;34212.09;5092923;28;20027;-69
2023/12/08 00:25:23;;;;;;;18.67;10.05;;;;;;;-146.27;80.02;34231.97;5093839;28;20110;-69
2023/12/08 00:27:48;;;;;;;21.88;10.40;;;;;;;-146.27;80.05;34247.84;5100255;28;20054;-69
2023/12/08 00:30:14;;;;;;;20.35;10.77;;;;;;;-146.27;80.12;34214.09;5093493;28;20060;-69
2023/12/08 00:32:39;;;;;;;19.15;11.27;;;;;;;-146.27;80.15;34259.75;5091819;28;20023;-69
2023/12/08 00:35:05;;;;;;;21.73;10.90;;;;;;;-146.27;80.81;34247.84;5102390;28;20023;-69
2023/12/08 00:37:30;;;;;;;19.65;10.98;;;;;;;-146.27;80.49;34198.22;5089955;28;20070;-69
2023/12/08 00:39:56;;;;;;;21.08;11.20;;;;;;;-146.27;80.48;34255.78;5093371;28;20089;-69
2023/12/08 00:42:21;;;;;;;18.92;10.65;;;;;;;-146.27;80.92;34220.06;5110074;28;20066;-68
2023/12/08 00:44:46;;;;;;;23.42;11.35;;;;;;;-146.27;80.93;34239.91;5099013;28;20039;-68
2023/12/08 00:47:12;;;;;;;26.17;12.02;;;;;;;-146.27;81.24;34237.91;5096033;28;20450;-69
2023/12/08 00:49:37;;;;;;;22.08;10.82;;;;;;;-146.27;80.67;34206.16;5103009;28;20480;-69
2023/12/08 00:52:03;;;;;;;23.25;12.65;;;;;;;-146.27;81.18;34243.88;5098217;28;20044;-68
2023/12/08 00:54:28;;;;;;;22.85;12.45;;;;;;;-146.27;80.94;34198.22;5091232;28;20110;-72
2023/12/08 00:56:54;;;;;;;23.83;12.32;;;;;;;-146.27;81.35;34216.09;5105173;28;20020;-68
2023/12/08 00:59:19;;;;;;;22.70;11.63;;;;;;;-146.27;81.05;34214.09;5093586;28;20106;-69
2023/12/08 01:01:44;;;;;;;20.63;11.23;;;;;;;-146.27;81.29;34224.03;5092121;28;20450;-68
2023/12/08 01:04:10;;;;;;;24.23;12.45;;;;;;;-146.27;80.95;34237.91;5105982;28;20410;-70
2023/12/08 01:06:35;;;;;;;23.42;12.45;;;;;;;-146.27;81.26;34220.06;5094625;28;20444;-69
2023/12/08 01:09:01;;;;;;;22.65;11.88;;;;;;;-146.27;81.74;34224.03;5101236;28;20469;-70
2023/12/08 01:11:26;;;;;;;24.95;12.50;;;;;;;-146.27;81.84;34251.81;5103638;28;20368;-70
2023/12/08 01:13:51;;;;;;;19.75;11.30;;;;;;;-146.27;82.02;34233.94;5096021;28;20027;-69
2023/12/08 01:16:17;;;;;;;20.52;12.00;;;;;;;-146.27;81.83;34212.09;5107251;28;20039;-69
2023/12/08 01:18:42;;;;;;;27.25;11.93;;;;;;;-146.27;82.17;34259.75;5090969;28;20080;-69
2023/12/08 01:21:07;;;;;;;26.42;13.63;;;;;;;-146.27;82.16;34257.75;5091346;28;20115;-70
2023/12/08 01:23:33;;;;;;;25.35;13.55;;;;;;;-146.27;82.28;34210.13;5090720;28;20154;-70
2023/12/08 01:25:58;;;;;;;22.42;12.52;;;;;;;-146.27;81.94;34224.03;5091709;28;20027;-69
2023/12/08 01:28:24;;;;;;;25.23;13.30;;;;;;;-146.27;82.11;34243.88;5071438;28;20101;-69
2023/12/08 01:30:50;;;;;;;25.55;13.30;;;;;;;-146.27;81.61;34241.88;5079229;28;20028;-69
2023/12/08 01:33:15;;;;;;;26.40;14.02;;;;;;;-146.27;82.08;34251.81;5089003;28;20115;-69
2023/12/08 01:35:40;;;;;;;25.60;13.13;;;;;;;-146.27;82.08;34224.03;5099350;28;20057;-69
2023/12/08 01:38:06;;;;;;;27.60;13.68;;;;;;;-146.27;82.84;34259.75;5098479;28;20019;-69
2023/12/08 01:40:31;;;;;;;26.17;14.45;;;;;;;-146.27;83.39;34255.78;5093633;28;20028;-69
2023/12/08 01:42:56;;;;;;;28.63;15.23;;;;;;;-146.27;83.18;34251.81;5097355;28;20081;-71
2023/12/08 01:45:22;;;;;;;28.52;14.95;;;;;;;-146.27;82.94;34259.75;5100494;28;20031;-70
2023/12/08 01:47:49;;;;;;;29.30;14.00;;;;;;;-146.27;83.40;34255.78;5112293;28;20026;-70
2023/12/08 01:50:17;;;;;;;27.00;14.30;;;;;;;-146.27;83.26;34255.78;5110125;28;20020;-70
2023/12/08 01:52:43;;;;;;;29.77;14.93;;;;;;;-146.27;83.45;34172.41;5104922;28;20496;-70
2023/12/08 01:55:10;;;;;;;31.77;16.58;;;;;;;-146.27;83.28;34237.91;5094956;28;20491;-69
2023/12/08 01:57:35;;;;;;;34.03;15.60;;;;;;;-146.27;83.86;34233.94;5106224;28;20049;-70
2023/12/08 02:00:01;;;;;;;33.28;15.23;;;;;;;-146.27;83.88;34231.97;5092514;28;20028;-69
2023/12/08 02:02:26;;;;;;;27.15;15.38;;;;;;;-146.27;84.05;34229.97;5098057;28;20028;-70
2023/12/08 02:04:56;;;;;;;36.50;16.33;;;;;;;-146.27;84.53;34243.88;5105243;28;20028;-69
2023/12/08 02:07:21;;;;;;;38.33;16.40;;;;;;;-146.27;84.01;34208.13;5104748;28;20023;-69
2023/12/08 02:09:47;;;;;;;36.97;16.13;;;;;;;-146.27;84.31;34263.72;5106735;28;20530;-70
2023/12/08 02:12:12;;;;;;;32.78;16.10;;;;;;;-146.27;84.26;34212.09;5102683;28;20031;-70
2023/12/08 02:14:38;;;;;;;30.75;16.00;;;;;;;-146.27;84.93;34259.75;5106963;28;20039;-70
2023/12/08 02:17:16;;;;;;;32.25;16.73;;;;;;;-146.27;84.26;34235.94;5111306;28;20034;-69
2023/12/08 02:19:42;;;;;;;32.63;17.25;;;;;;;-146.27;84.40;34267.69;5085273;28;20732;-69
2023/12/08 02:22:07;;;;;;;30.23;14.90;;;;;;;-146.27;84.72;34218.06;5092376;28;20032;-69
2023/12/08 02:24:32;;;;;;;32.75;16.75;;;;;;;-146.27;84.42;34210.13;5111019;28;20023;-68
2023/12/08 02:26:58;;;;;;;31.60;16.58;;;;;;;-146.27;84.34;34245.84;5100347;28;20020;-70
2023/12/08 02:29:24;;;;;;;34.75;16.65;;;;;;;-146.27;84.56;34212.09;5097311;28;20048;-69
2023/12/08 02:32:01;;;;;;;33.42;16.75;;;;;;;-146.27;84.64;34214.09;5092160;28;20051;-68
2023/12/08 02:34:29;;;;;;;34.03;17.38;;;;;;;-146.27;84.77;34235.94;5093072;27;20482;-70
2023/12/08 02:36:55;;;;;;;35.20;16.90;;;;;;;-146.27;85.04;34239.91;5104816;28;20024;-68
2023/12/08 02:39:21;;;;;;;36.63;16.55;;;;;;;-146.27;85.01;34239.91;5099866;28;20376;-70
2023/12/08 02:41:46;;;;;;;27.55;15.43;;;;;;;-146.27;84.99;34210.13;5078725;28;20028;-70
2023/12/08 02:44:12;;;;;;;36.33;16.63;;;;;;;-146.27;84.56;34235.94;5095665;28;20047;-70
2023/12/08 02:46:37;;;;;;;29.35;15.57;;;;;;;-146.27;84.47;34182.34;5092677;28;20610;-69
2023/12/08 02:49:03;;;;;;;29.13;15.45;;;;;;;-146.27;84.69;34208.13;5104900;28;20036;-69
2023/12/08 02:51:29;;;;;;;32.83;16.27;;;;;;;-146.27;84.34;34152.56;5101070;28;20416;-68
2023/12/08 02:53:54;;;;;;;35.28;16.63;;;;;;;-146.27;84.86;34224.03;5111784;28;20039;-70
2023/12/08 02:56:20;;;;;;;30.15;16.38;;;;;;;-146.27;84.59;34243.88;5089743;28;20057;-69
2023/12/08 02:58:45;;;;;;;32.92;16.98;;;;;;;-146.27;84.81;34247.84;5098794;28;20024;-70
2023/12/08 03:01:11;;;;;;;32.95;18.17;;;;;;;-146.27;85.17;34255.78;5102573;28;20019;-69
2023/12/08 03:03:36;;;;;;;35.97;16.48;;;;;;;-146.27;84.98;34216.09;5108595;28;20028;-69
2023/12/08 03:06:02;;;;;;;32.80;15.05;;;;;;;-146.27;85.48;34208.13;5106656;28;20463;-69
2023/12/08 03:08:27;;;;;;;29.15;15.93;;;;;;;-146.27;85.12;34231.97;5098815;28;20386;-68
2023/12/08 03:10:53;;;;;;;35.80;17.92;;;;;;;-146.27;85.09;34204.16;5105341;28;20051;-69
2023/12/08 03:13:18;;;;;;;33.30;16.95;;;;;;;-146.27;85.26;34216.09;5092103;28;20459;-69
2023/12/08 03:15:43;;;;;;;29.58;17.02;;;;;;;-146.27;85.02;34188.28;5101514;28;20100;-68
2023/12/08 03:18:09;;;;;;;34.78;18.10;;;;;;;-146.27;85.10;34220.06;5106057;28;20020;-69
2023/12/08 03:20:34;;;;;;;33.00;16.80;;;;;;;-146.27;85.32;34222.03;5108885;28;20035;-69
2023/12/08 03:22:59;;;;;;;31.30;16.42;;;;;;;-146.27;85.44;34253.78;5097614;28;20035;-69
2023/12/08 03:25:25;;;;;;;31.80;16.13;;;;;;;-146.27;85.32;34243.88;5096966;28;20082;-69
2023/12/08 03:27:50;;;;;;;37.08;16.35;;;;;;;-146.27;85.42;34243.88;5100994;28;20372;-69
2023/12/08 03:30:16;;;;;;;34.72;16.95;;;;;;;-146.27;85.75;34279.59;5101821;28;20020;-69
2023/12/08 03:32:41;;;;;;;39.38;18.08;;;;;;;-146.27;85.99;34228.00;5101415;28;20136;-71
2023/12/08 03:35:07;;;;;;;37.05;19.02;;;;;;;-146.27;85.78;34247.84;5103902;28;20026;-70
2023/12/08 03:37:32;;;;;;;31.63;16.70;;;;;;;-146.27;85.76;34239.91;5104435;28;20123;-69
2023/12/08 03:39:57;;;;;;;36.15;16.73;;;;;;;-146.27;85.75;34220.06;5101430;28;20111;-69
2023/12/08 03:42:23;;;;;;;33.88;17.70;;;;;;;-146.27;85.91;34204.16;5087742;28;20088;-69
2023/12/08 03:44:48;;;;;;;35.33;16.85;;;;;;;-146.27;86.01;34267.69;5096918;28;20027;-68
2023/12/08 03:47:13;;;;;;;33.50;17.23;;;;;;;-146.27;86.08;34239.91;5107689;28;20019;-70
2023/12/08 03:49:39;;;;;;;35.58;17.83;;;;;;;-146.27;85.54;34228.00;5096894;28;20027;-69
2023/12/08 03:52:04;;;;;;;35.15;17.73;;;;;;;-146.27;85.83;34208.13;5071998;28;20102;-69
2023/12/08 03:54:30;;;;;;;36.35;17.25;;;;;;;-146.27;85.59;34233.94;5091315;28;20111;-69
2023/12/08 03:56:55;;;;;;;34.10;17.83;;;;;;;-146.27;85.75;34188.28;5074085;28;20032;-69
2023/12/08 03:59:20;;;;;;;30.83;16.80;;;;;;;-146.27;85.44;34156.53;5109225;28;20131;-70
2023/12/08 04:01:46;;;;;;;34.28;16.63;;;;;;;-146.27;85.59;34196.22;5105621;28;20027;-69
2023/12/08 04:04:12;;;;;;;32.65;16.30;;;;;;;-146.27;85.39;34229.97;5098418;28;20016;-68
2023/12/08 04:06:38;;;;;;;31.42;15.60;;;;;;;-146.27;85.72;34198.22;5094177;28;20020;-70
2023/12/08 04:09:03;;;;;;;32.17;16.42;;;;;;;-146.27;85.82;34218.06;5095418;28;20020;-69
2023/12/08 04:11:29;;;;;;;30.23;15.27;;;;;;;-146.27;85.62;34194.25;5081154;28;20466;-70
2023/12/08 04:13:54;;;;;;;32.10;16.85;;;;;;;-146.27;85.21;34198.22;5090677;28;20035;-69
2023/12/08 04:16:19;;;;;;;27.55;15.10;;;;;;;-146.27;85.53;34188.28;5090608;28;20066;-69
2023/12/08 04:18:45;;;;;;;32.20;16.35;;;;;;;-146.27;85.71;34172.41;5103313;28;20031;-68
2023/12/08 04:21:16;;;;;;;34.22;16.25;;;;;;;-146.27;85.88;34208.13;5096832;28;20020;-68
2023/12/08 04:23:42;;;;;;;29.45;15.52;;;;;;;-146.27;85.75;34212.09;5107699;28;20054;-69
2023/12/08 04:26:07;;;;;;;31.45;15.55;;;;;;;-146.27;86.24;34239.91;5100140;28;20044;-69
2023/12/08 04:28:32;;;;;;;31.95;15.75;;;;;;;-146.27;85.83;34206.16;5102569;28;20517;-69
2023/12/08 04:30:58;;;;;;;36.10;17.10;;;;;;;-146.27;85.52;34178.38;5108834;28;20030;-70
2023/12/08 04:33:23;;;;;;;29.63;15.35;;;;;;;-146.27;86.08;34192.25;5096116;28;20028;-69
2023/12/08 04:35:48;;;;;;;32.45;15.23;;;;;;;-146.27;86.03;34220.06;5090764;28;20077;-70
2023/12/08 04:38:14;;;;;;;34.30;16.73;;;;;;;-146.27;86.25;34229.97;5098596;28;20047;-69
2023/12/08 04:40:39;;;;;;;31.20;15.93;;;;;;;-146.27;86.02;34200.19;5104058;28;20058;-69
2023/12/08 04:43:05;;;;;;;33.80;15.60;;;;;;;-146.27;86.01;34174.41;5097683;28;20026;-69
2023/12/08 04:45:30;;;;;;;31.42;15.95;;;;;;;-146.27;86.32;34194.25;5090306;28;20034;-69
2023/12/08 04:47:55;;;;;;;36.30;17.45;;;;;;;-146.27;85.97;34182.34;5099056;28;20024;-69
2023/12/08 04:50:21;;;;;;;29.88;15.18;;;;;;;-146.27;85.94;34156.53;5109204;28;20476;-69
2023/12/08 04:52:46;;;;;;;33.38;16.83;;;;;;;-146.27;86.34;34224.03;5092946;28;20028;-69
2023/12/08 04:55:12;;;;;;;32.70;16.65;;;;;;;-146.27;86.17;34192.25;5089385;28;20031;-69
2023/12/08 04:57:37;;;;;;;32.38;16.30;;;;;;;-146.27;86.79;34164.47;5094459;28;20039;-69
2023/12/08 05:00:03;;;;;;;30.80;16.02;;;;;;;-146.27;86.28;34184.31;5089706;28;20356;-69
2023/12/08 05:02:28;;;;;;;33.22;16.08;;;;;;;-146.27;86.34;34138.69;5095706;28;20069;-70
2023/12/08 05:04:53;;;;;;;37.53;17.45;;;;;;;-146.27;86.21;34188.28;5089556;28;20023;-69
2023/12/08 05:07:19;;;;;;;33.40;15.77;;;;;;;-146.27;86.22;34198.22;5089944;28;20020;-69
2023/12/08 05:09:45;;;;;;;37.08;16.92;;;;;;;-146.27;86.48;34182.34;5071600;28;20499;-69
2023/12/08 05:12:10;;;;;;;27.92;15.20;;;;;;;-146.27;86.43;34196.22;5098324;28;20663;-69
2023/12/08 05:14:35;;;;;;;33.80;16.73;;;;;;;-146.27;86.58;34150.59;5109882;28;20055;-69
2023/12/08 05:17:01;;;;;;;36.13;16.52;;;;;;;-146.27;86.28;34180.34;5081724;28;20443;-68
2023/12/08 05:19:26;;;;;;;26.23;13.75;;;;;;;-146.27;85.83;34170.44;5103076;28;20421;-69
2023/12/08 05:21:52;;;;;;;35.28;16.45;;;;;;;-146.27;86.30;34150.59;5097580;28;20439;-68
2023/12/08 05:24:17;;;;;;;33.00;15.88;;;;;;;-146.27;86.38;34160.50;5097823;28;20522;-68
2023/12/08 05:26:42;;;;;;;27.08;14.93;;;;;;;-146.27;86.60;34164.47;5093158;28;20024;-68
2023/12/08 05:29:08;;;;;;;31.88;15.98;;;;;;;-146.27;85.88;34178.38;5095758;28;20117;-70
2023/12/08 05:31:33;;;;;;;35.75;15.93;;;;;;;-146.27;86.29;34152.56;5110627;28;20580;-69
2023/12/08 05:33:58;;;;;;;31.70;15.80;;;;;;;-146.27;86.15;34174.41;5111716;28;20090;-69
2023/12/08 05:36:24;;;;;;;33.05;15.80;;;;;;;-146.27;86.41;34152.56;5108160;28;20020;-69
2023/12/08 05:38:49;;;;;;;33.40;17.10;;;;;;;-146.27;86.72;34168.44;5094034;28;20063;-69
2023/12/08 05:41:14;;;;;;;37.75;16.92;;;;;;;-146.27;86.47;34176.38;5103892;28;20039;-69
2023/12/08 05:43:40;;;;;;;33.67;15.73;;;;;;;-146.27;86.69;34104.94;5108960;28;20106;-69
2023/12/08 05:46:05;;;;;;;26.70;16.05;;;;;;;-146.27;86.43;34144.63;5102361;28;20027;-69
2023/12/08 05:48:30;;;;;;;39.28;16.48;;;;;;;-146.27;85.97;34176.38;5109945;28;20053;-69
2023/12/08 05:50:56;;;;;;;31.02;15.98;;;;;;;-146.27;86.05;34132.72;5092371;28;20054;-69
2023/12/08 05:53:21;;;;;;;30.95;16.27;;;;;;;-146.27;86.18;34132.72;5099466;28;20051;-69
2023/12/08 05:55:46;;;;;;;34.80;16.67;;;;;;;-146.27;86.18;34108.91;5112044;28;20035;-69
2023/12/08 05:58:12;;;;;;;26.02;15.77;;;;;;;-146.27;86.57;34166.47;5097482;28;20081;-69
2023/12/08 06:00:37;;;;;;;28.00;16.17;;;;;;;-146.27;86.20;34124.78;5098589;28;20039;-69
2023/12/08 06:03:02;;;;;;;33.78;16.40;;;;;;;-146.27;86.29;34124.78;5083101;28;20058;-68
2023/12/08 06:05:28;;;;;;;30.98;15.68;;;;;;;-146.27;86.40;34118.84;5102467;28;20023;-70
2023/12/08 06:07:53;;;;;;;32.03;15.75;;;;;;;-146.27;86.18;34132.72;5099600;28;20119;-68
2023/12/08 06:10:19;;;;;;;32.05;15.48;;;;;;;-146.27;86.59;34136.69;5105169;28;20023;-69
2023/12/08 06:12:44;;;;;;;32.95;17.02;;;;;;;-146.27;86.68;34116.84;5108133;28;20156;-69
2023/12/08 06:15:10;;;;;;;30.95;14.98;;;;;;;-146.27;86.70;34097.00;5103242;28;20068;-69
2023/12/08 06:17:36;;;;;;;33.58;15.30;;;;;;;-146.27;86.66;34093.03;5108675;28;20024;-69
2023/12/08 06:20:04;;;;;;;33.38;17.33;;;;;;;-146.27;86.53;34108.91;5106556;28;20030;-69
2023/12/08 06:22:30;;;;;;;34.25;15.73;;;;;;;-146.27;86.78;34097.00;5105367;28;20031;-70
2023/12/08 06:24:56;;;;;;;30.00;15.48;;;;;;;-146.27;86.82;34099.00;5093366;28;20039;-69
2023/12/08 06:27:21;;;;;;;37.17;17.25;;;;;;;-146.27;86.83;34097.00;5101017;28;20500;-69
2023/12/08 06:29:46;;;;;;;38.60;16.45;;;;;;;-146.27;87.08;34132.72;5099674;28;20070;-68
2023/12/08 06:32:12;;;;;;;33.92;16.52;;;;;;;-146.27;87.19;34081.13;5085241;28;20063;-69
2023/12/08 06:34:37;;;;;;;40.33;16.23;;;;;;;-146.27;87.13;34097.00;5103103;28;20056;-69
2023/12/08 06:37:03;;;;;;;32.83;16.73;;;;;;;-146.27;86.75;34069.22;5100080;28;20671;-69
2023/12/08 06:39:28;;;;;;;37.70;16.63;;;;;;;-146.27;87.06;34095.03;5100567;28;20102;-69
2023/12/08 06:41:53;;;;;;;28.15;15.00;;;;;;;-146.27;86.96;34108.91;5100534;28;20564;-69
2023/12/08 06:44:19;;;;;;;30.98;15.85;;;;;;;-146.27;87.09;34077.16;5108610;28;20545;-69
2023/12/08 06:46:44;;;;;;;32.00;16.33;;;;;;;-146.27;87.31;34031.53;5093912;28;20024;-69
2023/12/08 06:49:09;;;;;;;38.95;16.52;;;;;;;-146.27;87.71;34085.09;5102144;28;20019;-70
2023/12/08 06:51:35;;;;;;;36.78;15.98;;;;;;;-146.27;87.36;34053.34;5106464;28;20112;-70
2023/12/08 06:54:02;;;;;;;36.25;16.15;;;;;;;-146.27;87.69;34075.19;5099963;28;20096;-69
2023/12/08 06:56:28;;;;;;;34.95;16.23;;;;;;;-146.27;87.33;34110.91;5109841;28;20441;-70
2023/12/08 06:58:53;;;;;;;40.33;17.83;;;;;;;-146.27;87.75;34021.59;5101646;28;20024;-69
2023/12/08 07:01:19;;;;;;;39.20;17.17;;;;;;;-146.27;87.68;34043.44;5097909;28;20020;-70
2023/12/08 07:03:44;;;;;;;37.88;18.40;;;;;;;-146.27;87.49;34069.22;5097205;28;20024;-71
2023/12/08 07:06:09;;;;;;;34.72;16.05;;;;;;;-146.27;87.61;34031.53;5097048;28;20044;-69
2023/12/08 07:08:35;;;;;;;38.97;16.58;;;;;;;-146.27;87.47;34057.31;5091941;28;20123;-70
2023/12/08 07:11:00;;;;;;;34.47;16.75;;;;;;;-146.27;87.46;33977.94;5095105;28;20119;-68
2023/12/08 07:13:25;;;;;;;45.22;17.33;;;;;;;-146.27;87.62;34049.38;5107299;28;20027;-68
2023/12/08 07:15:51;;;;;;;44.35;16.88;;;;;;;-146.27;87.62;34053.34;5097742;28;20027;-67
2023/12/08 07:18:17;;;;;;;41.78;16.83;;;;;;;-146.27;87.64;34025.56;5097002;28;20039;-68
2023/12/08 07:20:42;;;;;;;39.40;17.83;;;;;;;-146.27;87.80;34045.41;5106197;28;20449;-69
2023/12/08 07:23:08;;;;;;;42.22;16.80;;;;;;;-146.27;87.81;33966.03;5084114;28;20449;-69
2023/12/08 07:25:33;;;;;;;44.25;17.55;;;;;;;-146.27;87.70;34009.69;5110678;28;20114;-69
2023/12/08 07:27:59;;;;;;;47.38;18.77;;;;;;;-146.27;87.92;34015.66;5111953;28;20027;-69
2023/12/08 07:30:24;;;;;;;51.13;19.13;;;;;;;-146.27;88.00;33985.88;5112248;28;20247;-69
2023/12/08 07:32:50;;;;;;;38.00;16.95;;;;;;;-146.27;87.94;33962.06;5105115;28;20110;-68
2023/12/08 07:35:16;;;;;;;45.95;16.90;;;;;;;-146.27;87.86;33997.78;5095351;28;20036;-68
2023/12/08 07:37:41;;;;;;;51.55;19.35;;;;;;;-146.27;87.71;33973.97;5098739;28;20398;-72
2023/12/08 07:40:08;;;;;;;50.28;18.23;;;;;;;-146.27;87.69;33997.78;5111100;28;20032;-70
2023/12/08 07:42:34;;;;;;;50.97;19.52;;;;;;;-146.27;87.92;33985.88;5108816;28;20846;-70
2023/12/08 07:44:59;;;;;;;45.65;18.55;;;;;;;-146.27;87.83;34009.69;5111184;28;20043;-69
2023/12/08 07:47:24;;;;;;;51.05;18.90;;;;;;;-146.27;88.08;33999.75;5113217;28;20428;-69
2023/12/08 07:49:50;;;;;;;49.40;19.20;;;;;;;-146.27;88.11;33934.28;5112946;28;20047;-68
2023/12/08 07:52:15;;;;;;;43.70;18.58;;;;;;;-146.27;87.99;33985.88;5099218;28;20081;-69
2023/12/08 07:54:41;;;;;;;53.25;20.05;;;;;;;-146.27;88.29;33989.84;5095913;28;20088;-71
2023/12/08 07:57:07;;;;;;;53.72;19.38;;;;;;;-146.27;88.07;33985.88;5111410;28;20028;-71
2023/12/08 07:59:33;;;;;;;41.53;18.92;;;;;;;-146.27;88.39;34001.75;5111671;28;20027;-71
2023/12/08 08:01:58;;;;;;;70.15;21.17;;;;;;;-146.27;88.36;33989.84;5111929;28;20058;-70
2023/12/08 08:04:23;;;;;;;53.45;20.15;;;;;;;-146.27;88.51;33942.22;5110546;28;20031;-71
2023/12/08 08:06:49;;;;;;;53.92;21.50;;;;;;;-146.27;88.87;34007.69;5100271;28;20024;-71
2023/12/08 08:09:14;;;;;;;53.83;19.75;;;;;;;-146.27;88.71;33977.94;5090409;27;20036;-69
2023/12/08 08:11:39;;;;;;;55.67;19.73;;;;;;;-146.27;88.35;33962.06;5094514;28;20102;-69
2023/12/08 08:14:05;;;;;;;54.03;20.75;;;;;;;-146.27;89.02;33977.94;5107786;28;20020;-67
2023/12/08 08:16:30;;;;;;;63.35;20.40;;;;;;;-146.27;89.01;33950.16;5099666;28;20102;-69
2023/12/08 08:18:56;;;;;;;66.57;22.13;;;;;;;-146.27;88.91;33958.09;5105867;28;20080;-70
2023/12/08 08:21:21;;;;;;;63.58;20.83;;;;;;;-146.27;89.21;33954.13;5092659;28;20416;-70
2023/12/08 08:23:46;;;;;;;61.88;19.88;;;;;;;-146.27;88.91;33910.47;5094450;28;20028;-69
2023/12/08 08:26:12;;;;;;;68.80;21.63;;;;;;;-146.27;88.78;33890.63;5103857;28;20433;-69
2023/12/08 08:28:37;;;;;;;72.65;22.35;;;;;;;-146.27;88.60;33946.19;5098796;28;20110;-70
2023/12/08 08:31:02;;;;;;;72.60;21.90;;;;;;;-146.27;88.53;33912.44;5105014;28;20028;-70
2023/12/08 08:33:28;;;;;;;62.00;21.48;;;;;;;-146.27;88.96;33811.25;5094373;28;20369;-70
2023/12/08 08:35:53;;;;;;;78.15;23.13;;;;;;;-146.27;89.63;33930.31;5105119;28;20464;-69
2023/12/08 08:38:18;;;;;;;70.78;21.38;;;;;;;-146.27;89.26;33904.50;5100306;28;20039;-70
2023/12/08 08:40:44;;;;;;;56.35;21.45;;;;;;;-146.27;89.29;33886.66;5097669;28;20345;-69
2023/12/08 08:43:09;;;;;;;64.65;22.35;;;;;;;-146.27;89.21;33880.69;5101402;28;20039;-70
2023/12/08 08:45:35;;;;;;;54.95;20.83;;;;;;;-146.27;89.70;33854.91;5091478;28;20030;-69
2023/12/08 08:48:01;;;;;;;63.92;21.02;;;;;;;-146.27;89.66;33813.22;5091866;28;20472;-70
2023/12/08 08:50:26;;;;;;;63.13;20.58;;;;;;;-146.27;89.78;33886.66;5094503;28;20127;-69
2023/12/08 08:52:52;;;;;;;62.67;22.02;;;;;;;-146.27;89.53;33856.88;5100948;28;21842;-69
2023/12/08 08:55:17;;;;;;;75.63;22.60;;;;;;;-146.27;89.93;33835.06;5093736;28;20027;-71
2023/12/08 08:57:44;;;;;;;71.40;21.02;;;;;;;-146.27;90.50;33835.06;5104927;28;20120;-69
2023/12/08 09:00:12;;;;;;;76.57;23.30;;;;;;;-146.27;90.57;33811.25;5091459;28;20042;-69
2023/12/08 09:02:37;;;;;;;70.53;24.00;;;;;;;-146.27;91.05;33839.03;5097982;28;20062;-69
2023/12/08 09:05:04;;;;;;;72.22;22.10;;;;;;;-146.27;90.58;33783.47;5104656;28;20039;-69
2023/12/08 09:07:29;;;;;;;70.78;22.95;;;;;;;-146.27;90.27;33777.50;5093076;28;20111;-69
2023/12/08 09:09:54;;;;;;;75.05;23.58;;;;;;;-146.27;91.05;33771.56;5099063;28;20509;-69
2023/12/08 09:12:20;;;;;;;91.53;25.50;;;;;;;-146.27;92.46;33894.59;5100680;28;20081;-69
2023/12/08 09:14:45;;;;;;;79.53;22.77;;;;;;;-146.27;93.16;33894.59;5096248;28;20314;-70
2023/12/08 09:17:11;;;;;;;76.45;25.08;;;;;;;-146.27;92.55;33835.06;5074190;28;20089;-68
2023/12/08 09:19:37;;;;;;;82.70;25.30;;;;;;;-146.27;93.21;33815.22;5099478;28;20024;-71
2023/12/08 09:22:04;;;;;;;84.53;24.90;;;;;;;-146.27;92.54;33741.78;5102844;28;20020;-69
2023/12/08 09:24:29;;;;;;;92.35;24.40;;;;;;;-146.27;92.27;33791.41;5100491;28;20355;-69
2023/12/08 09:26:55;;;;;;;95.38;23.80;;;;;;;-146.27;93.12;33783.47;5091849;28;20031;-70
2023/12/08 09:29:21;;;;;;;86.05;24.20;;;;;;;-146.27;92.39;33704.09;5092574;28;20044;-68
2023/12/08 09:31:47;;;;;;;83.97;26.08;;;;;;;-146.27;93.00;33735.84;5108993;28;20321;-71
2023/12/08 09:34:12;;;;;;;84.35;25.70;;;;;;;-146.27;93.61;33719.97;5101836;28;20034;-70
2023/12/08 09:36:37;;;;;;;94.65;27.05;;;;;;;-146.27;92.60;33716.00;5101227;28;20023;-69
2023/12/08 09:39:08;;;;;;;97.22;28.08;;;;;;;-146.27;92.74;33668.38;5093766;28;20016;-68
2023/12/08 09:41:37;;;;;;;113.45;26.35;;;;;;;-146.27;92.39;33670.34;5106035;28;20084;-69
2023/12/08 09:44:14;;;;;;;92.65;27.60;;;;;;;-146.27;93.06;33692.19;5079147;28;20115;-69
2023/12/08 09:46:43;;;;;;;104.97;27.23;;;;;;;-146.27;93.44;33688.22;5097675;28;20028;-70
2023/12/08 09:49:19;;;;;;;86.32;28.55;;;;;;;-146.27;92.85;33656.47;5097353;28;20039;-69
2023/12/08 09:51:45;;;;;;;101.88;25.90;;;;;;;-146.27;93.36;33672.34;5091969;28;20039;-69
2023/12/08 09:54:11;;;;;;;107.75;28.90;;;;;;;-146.27;92.92;33563.22;5095335;28;20384;-70
2023/12/08 09:56:36;;;;;;;106.00;28.98;;;;;;;-146.27;92.63;33600.91;5100797;28;20027;-70
2023/12/08 09:59:04;;;;;;;118.63;29.10;;;;;;;-146.27;92.79;33596.94;5095650;28;20073;-70
2023/12/08 10:01:30;;;;;;;102.65;30.42;;;;;;;-146.27;92.60;33594.97;5090340;28;20035;-70
2023/12/08 10:03:55;;;;;;;99.30;29.90;;;;;;;-146.27;92.95;33589.00;5095078;28;20391;-70
2023/12/08 10:06:23;;;;;;;111.78;29.70;;;;;;;-146.27;93.20;33604.88;5087103;28;20559;-68
2023/12/08 10:08:48;;;;;;;112.90;30.48;;;;;;;-146.27;93.33;33592.97;5099908;28;20032;-69
2023/12/08 10:11:15;;;;;;;124.43;31.15;;;;;;;-146.27;93.08;33541.38;5090989;28;20076;-68
2023/12/08 10:13:42;;;;;;;95.88;27.33;;;;;;;-146.27;92.84;33541.38;5096622;28;20019;-69
2023/12/08 10:16:07;;;;;;;112.63;28.70;;;;;;;-146.27;93.65;33581.06;5105704;28;20019;-69
2023/12/08 10:18:34;;;;;;;140.60;30.58;;;;;;;-146.27;94.42;33600.91;5101873;28;20023;-69
2023/12/08 10:21:32;;;;;;;105.45;30.85;;;;;;;-146.27;93.64;33547.34;5101735;28;20019;-69
2023/12/08 10:24:02;;;;;;;104.20;29.48;;;;;;;-146.27;93.16;33505.66;5054034;28;20630;-70
2023/12/08 10:26:29;;;;;;;110.55;31.02;;;;;;;-146.27;93.44;33481.84;5087694;28;20106;-70
2023/12/08 10:28:56;;;;;;;114.53;30.48;;;;;;;-146.27;94.40;33551.31;5098733;28;20067;-70
2023/12/08 10:31:21;;;;;;;115.85;32.30;;;;;;;-146.27;94.57;33573.13;5106794;28;20031;-70
2023/12/08 10:33:48;;;;;;;127.68;32.70;;;;;;;-146.27;94.44;33519.56;5108215;28;20020;-69
2023/12/08 10:36:14;;;;;;;110.47;31.17;;;;;;;-146.27;94.16;33454.06;5096660;28;20662;-71
2023/12/08 10:38:39;;;;;;;113.25;30.20;;;;;;;-146.27;94.16;33337.00;5104124;28;20111;-70
2023/12/08 10:41:05;;;;;;;118.43;30.42;;;;;;;-146.27;94.45;33479.88;5096999;28;20474;-68
2023/12/08 10:43:30;;;;;;;103.82;29.60;;;;;;;-146.27;93.42;33350.91;5094620;28;20028;-69
2023/12/08 10:45:55;;;;;;;115.88;31.42;;;;;;;-146.27;93.39;33366.78;5106596;28;20096;-69
2023/12/08 10:48:23;;;;;;;132.77;30.77;;;;;;;-146.27;93.14;33339.00;5101434;28;20023;-69
2023/12/08 10:50:50;;;;;;;130.38;30.73;;;;;;;-146.27;93.24;33388.59;5098708;28;20027;-69
2023/12/08 10:53:20;;;;;;;128.35;31.35;;;;;;;-146.27;92.52;33360.81;5102782;28;20058;-70
2023/12/08 10:56:04;;;;;;;119.10;33.15;;;;;;;-146.27;92.17;33219.94;5107921;28;20031;-69